Aviation Digital Data Service (ADDS)

Output produced by METARs form (2140 UTC 26 February 2020)
found at http://www.aviationweather.gov/metar/data/
 
EDDK 262120Z 24008KT 9999 SCT025 03/01 Q1007 NOSIG
EDDK 262050Z 24009KT 9999 FEW030 03/01 Q1006 NOSIG
EDDK 262020Z 25008KT 9999 FEW015 SCT024 03/01 Q1006 NOSIG
EDDK 261950Z 26011KT 9999 BKN028 03/01 Q1006 NOSIG
EDDK 261920Z 27010KT 9999 FEW018 03/00 Q1006 NOSIG
EDDK 261850Z 26013KT 9999 FEW016 03/01 Q1005 NOSIG
EDDK 261820Z 26013KT 9999 SCT016 03/01 Q1005 NOSIG
EDDK 261750Z 27014KT 9999 FEW017TCU BKN019 04/01 Q1005 NOSIG
TAF EDDK 261700Z 2618/2724 27012KT 9999 BKN020 
     TEMPO 2618/2620 28015G25KT 4000 SHRA BKN015CB 
     BECMG 2620/2623 25007KT 
     PROB40 
     TEMPO 2622/2702 3000 -SHSNRA BKN010CB 
     BECMG 2706/2709 15010KT 
     TEMPO 2712/2718 RA BKN010 
     TEMPO 2718/2724 35008KT 3000 RASN BKN005
       
TAF AMD EDGS 261550Z 2615/2624 28010KT 6000 BKN006 
     TEMPO 2615/2624 27015G25KT 1000 SHSN BR BKN002CB 
     PROB30 
     TEMPO 2615/2619 28020G30KT 0500 TSGS BKN001CB
       
EDLW 262120Z AUTO 23010KT 9999 // FEW008/// SCT015/// OVC021/// 03/02 Q1005
EDLW 262050Z 24007KT 9999 FEW009 BKN017 OVC026 03/02 Q1004
EDLW 262020Z 24008KT 9999 -RA BKN010 OVC013 03/02 Q1004
EDLW 261950Z 24010KT 9999 -RA SCT014 BKN025 03/02 Q1004
EDLW 261920Z 24009KT 9999 FEW011 BKN016 03/02 Q1004
EDLW 261850Z 24007KT 9999 FEW018 BKN033 03/02 Q1003
EDLW 261820Z 25009KT 220V280 9999 SCT010 BKN032 03/02 Q1003
EDLW 261750Z 25011G24KT 7000 -RA SCT008 BKN024 04/01 Q1003
TAF EDLW 261700Z 2618/2718 26010KT 9999 FEW012 BKN020 
     TEMPO 2618/2620 28015G25KT 3000 SHRA BKN010CB 
     TEMPO 2620/2702 BKN012 
     PROB40 
     TEMPO 2702/2705 3000 -SHSNRA BKN006CB 
     BECMG 2705/2708 20010KT 
     BECMG 2711/2714 10009KT 
     TEMPO 2712/2718 RA BKN014 
     BECMG 2715/2718 30006KT
       
EDDL 262120Z 24006KT 9999 -SHRA FEW012 SCT022TCU 03/02 Q1006 NOSIG
EDDL 262050Z 24010KT 9999 FEW012 SCT034 03/02 Q1006 NOSIG
EDDL 262020Z 25011KT 9999 FEW012 SCT042 03/02 Q1006 NOSIG
EDDL 261950Z 24010KT 9999 FEW012 03/02 Q1005 NOSIG
EDDL 261920Z 25009KT 9999 FEW012 SCT028 03/02 Q1005 NOSIG
EDDL 261850Z 25006KT 9999 VCSH FEW012 FEW017CB 03/02 Q1005 RESHGS NOSIG
EDDL 261820Z 28006KT 240V350 9999 SHGSRA FEW010 BKN015CB 04/03 Q1005 BECMG NSW
EDDL 261750Z 24007KT 9999 VCSH FEW012 FEW018CB 03/02 Q1004 TEMPO SHRA
TAF EDDL 261700Z 2618/2724 24009KT 9999 BKN020 
     TEMPO 2618/2620 28015G25KT 4000 SHRA BKN015CB 
     PROB40 
     TEMPO 2623/2702 3000 -SHSNRA BKN010CB 
     BECMG 2706/2709 15010KT 
     TEMPO 2712/2718 RA BKN010 
     PROB30 
     TEMPO 2713/2724 35008KT 3000 RASN BKN005
       
ETNN 262120Z 25011KT 9999 -SHRA SCT018 BKN050 03/01 Q1006 BLU
ETNN 262020Z 24010KT 9999 BKN050 03/00 Q1006 BLU
ETNN 261920Z 26013KT 9999 FEW017 SCT060 02/00 Q1005 BLU+
ETNN 261820Z 26014KT 9999 FEW017 SCT060 03/00 Q1005 BLU+
TAF AMD ETNN 261603Z 2615/2624 27015G25KT 9999 NSW BKN010 
     BECMG 2615/2617 26012G22KT 9999 NSW SCT010 SCT040 
     TEMPO 2615/2624 27020G32KT 3000 SHRASN SCT005 BKN010CB 
     PROB30 2615/2624 28025G38KT 1000 TSGS BKN004 BKN008CB CANCEL BY ETGL